MXY518 KCMH-KJAX
Flight info
| Callsign | MXY518 |
|---|---|
| Flight time | 1h 42m |
| Altitude | 37000 |
| Route | POBSE OHIOS SPA ALD ESENT LUNNI2 |
| Aircraft | A320/M-SDE3FGHIRWY/LB1 |
Departure
| Time | 2026-05-08 18:13 |
|---|---|
| Airport | John Glenn Columbus International Airport (KCMH) |
Arrival
| Time | 2026-05-08 19:55 |
|---|---|
| Airport | Jacksonville International Airport (KJAX) |
| Time | Latitude | Longitude | Altitude | Speed | Heading |
|---|---|---|---|---|---|
| 2026-05-08 17:34 | 39.99869 | -82.87997 | 822 ft | 0 kts | 278° |
| 2026-05-08 18:02 | 39.99868 | -82.87984 | 822 ft | 4 kts | 277° |
| 2026-05-08 18:03 | 39.99864 | -82.87950 | 820 ft | 4 kts | 275° |
| 2026-05-08 18:03 | 39.99865 | -82.87915 | 819 ft | 4 kts | 248° |
| 2026-05-08 18:03 | 39.99880 | -82.87892 | 821 ft | 3 kts | 186° |
| 2026-05-08 18:03 | 39.99883 | -82.87892 | 822 ft | 1 kts | 184° |
| 2026-05-08 18:08 | 39.99879 | -82.87892 | 823 ft | 1 kts | 184° |
| 2026-05-08 18:08 | 39.99863 | -82.87893 | 821 ft | 6 kts | 184° |
| 2026-05-08 18:08 | 39.99804 | -82.87898 | 823 ft | 9 kts | 184° |
| 2026-05-08 18:09 | 39.99731 | -82.87904 | 823 ft | 12 kts | 183° |
| 2026-05-08 18:09 | 39.99642 | -82.87912 | 823 ft | 14 kts | 185° |
| 2026-05-08 18:09 | 39.99545 | -82.87923 | 824 ft | 13 kts | 185° |
| 2026-05-08 18:09 | 39.99483 | -82.87901 | 825 ft | 9 kts | 111° |
| 2026-05-08 18:10 | 39.99466 | -82.87816 | 824 ft | 10 kts | 123° |
| 2026-05-08 18:10 | 39.99396 | -82.87789 | 824 ft | 10 kts | 167° |
| 2026-05-08 18:10 | 39.99361 | -82.87706 | 824 ft | 12 kts | 96° |
| 2026-05-08 18:10 | 39.99354 | -82.87594 | 825 ft | 13 kts | 94° |
| 2026-05-08 18:11 | 39.99345 | -82.87484 | 824 ft | 10 kts | 109° |
| 2026-05-08 18:11 | 39.99275 | -82.87447 | 822 ft | 13 kts | 184° |
| 2026-05-08 18:11 | 39.99199 | -82.87466 | 822 ft | 10 kts | 212° |
| 2026-05-08 18:11 | 39.99176 | -82.87559 | 821 ft | 13 kts | 271° |
| 2026-05-08 18:12 | 39.99184 | -82.87705 | 820 ft | 30 kts | 274° |
| 2026-05-08 18:12 | 39.99216 | -82.88280 | 822 ft | 95 kts | 274° |
| 2026-05-08 18:12 | 39.99275 | -82.89366 | 817 ft | 143 kts | 274° |
| 2026-05-08 18:12 | 39.99351 | -82.90788 | 1100 ft | 158 kts | 269° |
| 2026-05-08 18:13 | 39.99424 | -82.92190 | 1815 ft | 154 kts | 272° |
| 2026-05-08 18:13 | 39.99504 | -82.93579 | 2476 ft | 154 kts | 272° |
| 2026-05-08 18:13 | 39.99587 | -82.95064 | 2839 ft | 175 kts | 271° |
| 2026-05-08 18:13 | 39.99679 | -82.96755 | 3158 ft | 199 kts | 271° |
| 2026-05-08 18:14 | 39.99784 | -82.98668 | 3510 ft | 224 kts | 271° |
| 2026-05-08 18:14 | 39.99607 | -83.00751 | 4013 ft | 240 kts | 248° |
| 2026-05-08 18:14 | 39.98609 | -83.02504 | 4867 ft | 248 kts | 219° |
| 2026-05-08 18:14 | 39.96987 | -83.03313 | 5750 ft | 260 kts | 188° |
| 2026-05-08 18:15 | 39.95183 | -83.02776 | 6617 ft | 278 kts | 158° |
| 2026-05-08 18:15 | 39.93485 | -83.01498 | 7422 ft | 284 kts | 153° |
| 2026-05-08 18:15 | 39.91824 | -83.00110 | 8205 ft | 290 kts | 152° |
| 2026-05-08 18:15 | 39.90126 | -82.98644 | 8999 ft | 296 kts | 151° |
| 2026-05-08 18:16 | 39.88398 | -82.97151 | 9768 ft | 301 kts | 151° |
| 2026-05-08 18:16 | 39.86629 | -82.95639 | 10332 ft | 312 kts | 152° |
| 2026-05-08 18:16 | 39.84709 | -82.94029 | 10515 ft | 336 kts | 152° |
| 2026-05-08 18:16 | 39.82681 | -82.92346 | 10785 ft | 354 kts | 152° |
| 2026-05-08 18:17 | 39.80609 | -82.90627 | 11344 ft | 361 kts | 151° |
| 2026-05-08 18:17 | 39.78446 | -82.88831 | 11968 ft | 367 kts | 151° |
| 2026-05-08 18:17 | 39.76309 | -82.87059 | 12584 ft | 372 kts | 151° |
| 2026-05-08 18:17 | 39.74110 | -82.85240 | 13219 ft | 378 kts | 152° |
| 2026-05-08 18:18 | 39.71874 | -82.83395 | 13834 ft | 384 kts | 152° |
| 2026-05-08 18:18 | 39.69604 | -82.81529 | 14396 ft | 389 kts | 152° |
| 2026-05-08 18:18 | 39.67304 | -82.79635 | 14942 ft | 394 kts | 152° |
| 2026-05-08 18:18 | 39.64981 | -82.77722 | 15484 ft | 398 kts | 152° |
| 2026-05-08 18:19 | 39.62625 | -82.75784 | 16021 ft | 402 kts | 152° |
| 2026-05-08 18:19 | 39.60249 | -82.73835 | 16580 ft | 407 kts | 153° |
| 2026-05-08 18:19 | 39.57846 | -82.71863 | 17127 ft | 411 kts | 153° |
| 2026-05-08 18:19 | 39.55417 | -82.69872 | 17684 ft | 415 kts | 153° |
| 2026-05-08 18:20 | 39.52962 | -82.67861 | 18244 ft | 419 kts | 153° |
| 2026-05-08 18:20 | 39.50483 | -82.65833 | 18758 ft | 423 kts | 154° |
| 2026-05-08 18:20 | 39.47919 | -82.63965 | 19274 ft | 421 kts | 162° |
| 2026-05-08 18:20 | 39.45199 | -82.62677 | 19835 ft | 414 kts | 173° |
| 2026-05-08 18:21 | 39.42388 | -82.61998 | 20407 ft | 407 kts | 183° |
| 2026-05-08 18:21 | 39.39589 | -82.61922 | 20979 ft | 399 kts | 193° |
| 2026-05-08 18:21 | 39.36821 | -82.62209 | 21557 ft | 399 kts | 194° |
| 2026-05-08 18:21 | 39.34044 | -82.62500 | 22106 ft | 401 kts | 194° |
| 2026-05-08 18:22 | 39.31254 | -82.62785 | 22644 ft | 403 kts | 194° |
| 2026-05-08 18:22 | 39.28455 | -82.63067 | 23171 ft | 405 kts | 194° |
| 2026-05-08 18:22 | 39.25642 | -82.63350 | 23676 ft | 406 kts | 194° |
| 2026-05-08 18:22 | 39.22815 | -82.63635 | 24082 ft | 409 kts | 194° |
| 2026-05-08 18:23 | 39.19968 | -82.63921 | 24486 ft | 411 kts | 194° |
| 2026-05-08 18:23 | 39.17106 | -82.64210 | 24861 ft | 413 kts | 194° |
| 2026-05-08 18:23 | 39.14235 | -82.64500 | 25242 ft | 415 kts | 194° |
| 2026-05-08 18:23 | 39.11348 | -82.64791 | 25619 ft | 417 kts | 194° |
| 2026-05-08 18:24 | 39.08442 | -82.65083 | 25988 ft | 420 kts | 194° |
| 2026-05-08 18:24 | 39.05518 | -82.65378 | 26350 ft | 422 kts | 194° |
| 2026-05-08 18:24 | 39.02588 | -82.65675 | 26702 ft | 424 kts | 195° |
| 2026-05-08 18:24 | 38.99639 | -82.65977 | 27055 ft | 426 kts | 195° |
| 2026-05-08 18:25 | 38.96672 | -82.66283 | 27413 ft | 428 kts | 195° |
| 2026-05-08 18:25 | 38.93692 | -82.66587 | 27756 ft | 431 kts | 195° |
| 2026-05-08 18:25 | 38.90694 | -82.66889 | 28108 ft | 433 kts | 195° |
| 2026-05-08 18:25 | 38.87680 | -82.67192 | 28459 ft | 435 kts | 195° |
| 2026-05-08 18:26 | 38.84655 | -82.67495 | 28817 ft | 438 kts | 195° |
| 2026-05-08 18:26 | 38.81613 | -82.67585 | 29145 ft | 451 kts | 187° |
| 2026-05-08 18:26 | 38.78407 | -82.67078 | 29475 ft | 463 kts | 181° |
| 2026-05-08 18:26 | 38.75275 | -82.66407 | 29937 ft | 462 kts | 181° |
| 2026-05-08 18:27 | 38.72109 | -82.65731 | 30386 ft | 461 kts | 182° |
| 2026-05-08 18:27 | 38.71040 | -82.65505 | 30519 ft | 460 kts | 182° |
| 2026-05-08 18:27 | 38.65798 | -82.64402 | 31189 ft | 458 kts | 182° |
| 2026-05-08 18:27 | 38.62662 | -82.63751 | 31608 ft | 456 kts | 183° |
| 2026-05-08 18:28 | 38.59530 | -82.63105 | 32046 ft | 455 kts | 183° |
| 2026-05-08 18:28 | 38.56412 | -82.62466 | 32495 ft | 453 kts | 183° |
| 2026-05-08 18:28 | 38.54309 | -82.62036 | 32781 ft | 452 kts | 184° |
| 2026-05-08 18:28 | 38.51207 | -82.61400 | 33215 ft | 451 kts | 184° |
| 2026-05-08 18:29 | 38.48115 | -82.60762 | 33634 ft | 450 kts | 184° |
| 2026-05-08 18:29 | 38.45027 | -82.60124 | 34072 ft | 448 kts | 184° |
| 2026-05-08 18:29 | 38.41958 | -82.59486 | 34434 ft | 447 kts | 184° |
| 2026-05-08 18:29 | 38.38925 | -82.58854 | 34764 ft | 446 kts | 185° |
| 2026-05-08 18:30 | 38.35823 | -82.58211 | 35094 ft | 446 kts | 185° |
| 2026-05-08 18:30 | 38.32764 | -82.57582 | 35393 ft | 445 kts | 185° |
| 2026-05-08 18:30 | 38.29704 | -82.56954 | 35686 ft | 445 kts | 185° |
| 2026-05-08 18:30 | 38.26649 | -82.56327 | 35949 ft | 445 kts | 185° |
| 2026-05-08 18:31 | 38.20568 | -82.55076 | 36035 ft | 445 kts | 186° |
| 2026-05-08 18:31 | 38.14454 | -82.53826 | 36037 ft | 445 kts | 186° |
| 2026-05-08 18:32 | 38.08340 | -82.52577 | 36215 ft | 445 kts | 186° |
| 2026-05-08 18:32 | 38.05278 | -82.51950 | 36522 ft | 445 kts | 186° |
| 2026-05-08 18:32 | 38.02225 | -82.51326 | 36816 ft | 444 kts | 186° |
| 2026-05-08 18:33 | 37.99175 | -82.50705 | 37012 ft | 445 kts | 186° |
| 2026-05-08 18:33 | 37.96110 | -82.50088 | 37061 ft | 448 kts | 186° |
| 2026-05-08 18:33 | 37.89920 | -82.48848 | 37067 ft | 453 kts | 186° |
| 2026-05-08 18:34 | 37.83677 | -82.47573 | 37075 ft | 455 kts | 186° |
| 2026-05-08 18:34 | 37.77430 | -82.46288 | 37072 ft | 454 kts | 186° |
| 2026-05-08 18:35 | 37.71189 | -82.45011 | 37073 ft | 454 kts | 186° |
| 2026-05-08 18:35 | 37.64953 | -82.43758 | 37056 ft | 454 kts | 186° |
| 2026-05-08 18:36 | 37.58705 | -82.42504 | 37054 ft | 455 kts | 186° |
| 2026-05-08 18:36 | 37.52465 | -82.41244 | 37049 ft | 454 kts | 186° |
| 2026-05-08 18:37 | 37.46251 | -82.39988 | 37049 ft | 455 kts | 186° |
| 2026-05-08 18:37 | 37.40000 | -82.38735 | 37047 ft | 455 kts | 186° |
| 2026-05-08 18:38 | 37.33747 | -82.37485 | 37053 ft | 455 kts | 187° |
| 2026-05-08 18:38 | 37.27496 | -82.36235 | 37046 ft | 454 kts | 187° |
| 2026-05-08 18:39 | 37.21242 | -82.34984 | 37070 ft | 455 kts | 187° |
| 2026-05-08 18:39 | 37.14992 | -82.33735 | 37079 ft | 455 kts | 187° |
| 2026-05-08 18:40 | 37.08731 | -82.32490 | 37082 ft | 455 kts | 187° |
| 2026-05-08 18:40 | 37.02476 | -82.31245 | 37073 ft | 455 kts | 187° |
| 2026-05-08 18:41 | 36.96216 | -82.30001 | 37076 ft | 455 kts | 187° |
| 2026-05-08 18:41 | 36.89974 | -82.28766 | 37081 ft | 454 kts | 187° |
| 2026-05-08 18:42 | 36.83736 | -82.27529 | 37076 ft | 454 kts | 188° |
| 2026-05-08 18:42 | 36.77543 | -82.26308 | 37079 ft | 453 kts | 188° |
| 2026-05-08 18:43 | 36.71319 | -82.25078 | 37084 ft | 453 kts | 188° |
| 2026-05-08 18:43 | 36.65103 | -82.23861 | 37083 ft | 452 kts | 188° |
| 2026-05-08 18:44 | 36.58886 | -82.22639 | 37077 ft | 452 kts | 188° |
| 2026-05-08 18:44 | 36.52686 | -82.21418 | 37075 ft | 451 kts | 188° |
| 2026-05-08 18:45 | 36.46484 | -82.20202 | 37077 ft | 451 kts | 188° |
| 2026-05-08 18:45 | 36.40282 | -82.18989 | 37072 ft | 450 kts | 189° |
| 2026-05-08 18:46 | 36.34096 | -82.17785 | 37063 ft | 450 kts | 189° |
| 2026-05-08 18:46 | 36.27915 | -82.16578 | 37056 ft | 450 kts | 189° |
| 2026-05-08 18:47 | 36.21733 | -82.15371 | 37055 ft | 449 kts | 189° |
| 2026-05-08 18:47 | 36.15566 | -82.14179 | 37047 ft | 448 kts | 189° |
| 2026-05-08 18:48 | 36.09414 | -82.12992 | 37047 ft | 448 kts | 189° |
| 2026-05-08 18:48 | 36.03258 | -82.11795 | 37053 ft | 447 kts | 189° |
| 2026-05-08 18:49 | 35.97105 | -82.10602 | 37056 ft | 447 kts | 189° |
| 2026-05-08 18:49 | 35.90968 | -82.09425 | 37040 ft | 446 kts | 189° |
| 2026-05-08 18:50 | 35.84872 | -82.08250 | 37048 ft | 446 kts | 189° |
| 2026-05-08 18:50 | 35.78691 | -82.07056 | 37050 ft | 447 kts | 189° |
| 2026-05-08 18:51 | 35.72594 | -82.05885 | 37053 ft | 447 kts | 189° |
| 2026-05-08 18:51 | 35.66442 | -82.04708 | 37074 ft | 447 kts | 189° |
| 2026-05-08 18:52 | 35.60287 | -82.03534 | 37087 ft | 448 kts | 189° |
| 2026-05-08 18:52 | 35.54135 | -82.02353 | 37095 ft | 447 kts | 189° |
| 2026-05-08 18:53 | 35.47998 | -82.01168 | 36803 ft | 445 kts | 189° |
| 2026-05-08 18:53 | 35.44934 | -82.00578 | 36151 ft | 445 kts | 189° |
| 2026-05-08 18:53 | 35.41870 | -81.99995 | 35494 ft | 446 kts | 189° |
| 2026-05-08 18:54 | 35.38805 | -81.99410 | 35185 ft | 445 kts | 189° |
| 2026-05-08 18:54 | 35.35732 | -81.98829 | 35064 ft | 449 kts | 189° |
| 2026-05-08 18:54 | 35.29528 | -81.97668 | 35091 ft | 452 kts | 188° |
| 2026-05-08 18:55 | 35.20198 | -81.95894 | 35084 ft | 452 kts | 188° |
| 2026-05-08 18:56 | 35.13984 | -81.94708 | 35083 ft | 452 kts | 188° |
| 2026-05-08 18:56 | 35.07773 | -81.93531 | 35084 ft | 452 kts | 188° |
| 2026-05-08 18:57 | 35.01537 | -81.92124 | 35085 ft | 466 kts | 182° |
| 2026-05-08 18:57 | 34.95305 | -81.90121 | 35083 ft | 466 kts | 182° |
| 2026-05-08 18:58 | 34.89027 | -81.88105 | 35094 ft | 467 kts | 182° |
| 2026-05-08 18:58 | 34.82750 | -81.86091 | 35087 ft | 466 kts | 181° |
| 2026-05-08 18:59 | 34.76475 | -81.84071 | 35088 ft | 466 kts | 181° |
| 2026-05-08 18:59 | 34.70200 | -81.82061 | 35095 ft | 466 kts | 181° |
| 2026-05-08 19:00 | 34.64993 | -81.80401 | 35097 ft | 465 kts | 181° |
| 2026-05-08 19:00 | 34.57673 | -81.78079 | 35102 ft | 465 kts | 181° |
| 2026-05-08 19:01 | 34.51423 | -81.76093 | 35105 ft | 464 kts | 181° |
| 2026-05-08 19:01 | 34.45172 | -81.74103 | 35116 ft | 464 kts | 181° |
| 2026-05-08 19:02 | 34.38929 | -81.72120 | 35125 ft | 464 kts | 181° |
| 2026-05-08 19:02 | 34.32689 | -81.70141 | 35123 ft | 464 kts | 180° |
| 2026-05-08 19:03 | 34.26449 | -81.68168 | 35124 ft | 463 kts | 180° |
| 2026-05-08 19:03 | 34.20212 | -81.66212 | 35125 ft | 463 kts | 180° |
| 2026-05-08 19:04 | 34.13978 | -81.64249 | 35117 ft | 463 kts | 180° |
| 2026-05-08 19:04 | 34.07776 | -81.62294 | 35100 ft | 464 kts | 180° |
| 2026-05-08 19:05 | 34.01534 | -81.60329 | 35097 ft | 464 kts | 180° |
| 2026-05-08 19:05 | 33.95293 | -81.58369 | 35090 ft | 464 kts | 179° |
| 2026-05-08 19:06 | 33.89039 | -81.56414 | 35093 ft | 464 kts | 179° |
| 2026-05-08 19:06 | 33.82789 | -81.54468 | 35095 ft | 464 kts | 179° |
| 2026-05-08 19:07 | 33.76537 | -81.52513 | 35098 ft | 464 kts | 179° |
| 2026-05-08 19:07 | 33.70285 | -81.50552 | 35101 ft | 464 kts | 179° |
| 2026-05-08 19:08 | 33.64067 | -81.48612 | 35101 ft | 464 kts | 179° |
| 2026-05-08 19:08 | 33.57807 | -81.46680 | 35092 ft | 465 kts | 179° |
| 2026-05-08 19:09 | 33.51545 | -81.44746 | 35086 ft | 465 kts | 178° |
| 2026-05-08 19:09 | 33.45274 | -81.42801 | 35075 ft | 466 kts | 178° |
| 2026-05-08 19:10 | 33.38998 | -81.40848 | 35076 ft | 466 kts | 178° |
| 2026-05-08 19:10 | 33.32711 | -81.38900 | 35074 ft | 467 kts | 178° |
| 2026-05-08 19:11 | 33.26414 | -81.36960 | 35074 ft | 467 kts | 178° |
| 2026-05-08 19:11 | 33.20121 | -81.35026 | 35075 ft | 468 kts | 178° |
| 2026-05-08 19:12 | 33.13816 | -81.33080 | 35072 ft | 468 kts | 178° |
| 2026-05-08 19:12 | 33.07504 | -81.31137 | 35061 ft | 468 kts | 178° |
| 2026-05-08 19:13 | 33.01190 | -81.29168 | 35065 ft | 474 kts | 174° |
| 2026-05-08 19:13 | 32.94931 | -81.26438 | 35067 ft | 480 kts | 171° |
| 2026-05-08 19:14 | 32.88719 | -81.23685 | 35064 ft | 480 kts | 171° |
| 2026-05-08 19:14 | 32.82457 | -81.20914 | 35063 ft | 480 kts | 171° |
| 2026-05-08 19:15 | 32.76198 | -81.18158 | 35063 ft | 480 kts | 171° |
| 2026-05-08 19:15 | 32.69935 | -81.15414 | 35067 ft | 479 kts | 171° |
| 2026-05-08 19:16 | 32.63684 | -81.12665 | 35070 ft | 479 kts | 171° |
| 2026-05-08 19:16 | 32.57465 | -81.09936 | 35063 ft | 468 kts | 171° |
| 2026-05-08 19:17 | 32.51432 | -81.07281 | 35032 ft | 460 kts | 171° |
| 2026-05-08 19:17 | 32.49439 | -81.06412 | 34569 ft | 463 kts | 171° |
| 2026-05-08 19:17 | 32.46421 | -81.05102 | 33626 ft | 460 kts | 171° |
| 2026-05-08 19:17 | 32.43425 | -81.03801 | 32988 ft | 457 kts | 171° |
| 2026-05-08 19:18 | 32.40461 | -81.02509 | 32499 ft | 453 kts | 170° |
| 2026-05-08 19:18 | 32.37511 | -81.01218 | 31991 ft | 450 kts | 170° |
| 2026-05-08 19:18 | 32.34588 | -80.99938 | 31512 ft | 446 kts | 170° |
| 2026-05-08 19:18 | 32.31683 | -80.98667 | 31039 ft | 443 kts | 170° |
| 2026-05-08 19:19 | 32.28799 | -80.97410 | 30570 ft | 440 kts | 170° |
| 2026-05-08 19:19 | 32.25926 | -80.96163 | 30079 ft | 438 kts | 170° |
| 2026-05-08 19:19 | 32.23078 | -80.94926 | 29606 ft | 434 kts | 170° |
| 2026-05-08 19:19 | 32.20261 | -80.93702 | 29169 ft | 429 kts | 171° |
| 2026-05-08 19:20 | 32.17432 | -80.92822 | 28748 ft | 410 kts | 182° |
| 2026-05-08 19:20 | 32.15583 | -80.92609 | 28493 ft | 398 kts | 189° |
| 2026-05-08 19:20 | 32.12005 | -80.92958 | 27965 ft | 375 kts | 202° |
| 2026-05-08 19:20 | 32.09511 | -80.93717 | 27599 ft | 368 kts | 205° |
| 2026-05-08 19:21 | 32.07044 | -80.94494 | 27237 ft | 366 kts | 205° |
| 2026-05-08 19:21 | 32.04623 | -80.95251 | 26872 ft | 363 kts | 205° |
| 2026-05-08 19:21 | 32.02157 | -80.96020 | 26497 ft | 361 kts | 205° |
| 2026-05-08 19:21 | 31.99764 | -80.96764 | 26108 ft | 360 kts | 205° |
| 2026-05-08 19:22 | 31.97352 | -80.97516 | 25728 ft | 358 kts | 205° |
| 2026-05-08 19:22 | 31.94954 | -80.98262 | 25346 ft | 356 kts | 205° |
| 2026-05-08 19:22 | 31.92564 | -80.99004 | 24965 ft | 354 kts | 205° |
| 2026-05-08 19:22 | 31.90184 | -80.99744 | 24573 ft | 353 kts | 205° |
| 2026-05-08 19:23 | 31.87814 | -81.00480 | 24180 ft | 352 kts | 204° |
| 2026-05-08 19:23 | 31.85453 | -81.01216 | 23811 ft | 349 kts | 205° |
| 2026-05-08 19:23 | 31.83117 | -81.01952 | 23446 ft | 346 kts | 205° |
| 2026-05-08 19:23 | 31.80807 | -81.02685 | 23092 ft | 341 kts | 205° |
| 2026-05-08 19:24 | 31.78529 | -81.03411 | 22756 ft | 337 kts | 205° |
| 2026-05-08 19:24 | 31.76274 | -81.04128 | 22427 ft | 335 kts | 204° |
| 2026-05-08 19:24 | 31.74036 | -81.04842 | 22102 ft | 333 kts | 204° |
| 2026-05-08 19:24 | 31.71803 | -81.05555 | 21774 ft | 331 kts | 204° |
| 2026-05-08 19:25 | 31.69589 | -81.06261 | 21449 ft | 329 kts | 204° |
| 2026-05-08 19:25 | 31.67388 | -81.06965 | 21125 ft | 327 kts | 204° |
| 2026-05-08 19:25 | 31.65199 | -81.07667 | 20805 ft | 325 kts | 204° |
| 2026-05-08 19:25 | 31.63019 | -81.08363 | 20489 ft | 324 kts | 204° |
| 2026-05-08 19:26 | 31.60850 | -81.09050 | 20169 ft | 322 kts | 204° |
| 2026-05-08 19:26 | 31.58689 | -81.09731 | 19854 ft | 320 kts | 204° |
| 2026-05-08 19:26 | 31.56544 | -81.10406 | 19546 ft | 319 kts | 203° |
| 2026-05-08 19:26 | 31.54406 | -81.11078 | 19225 ft | 317 kts | 203° |
| 2026-05-08 19:27 | 31.52307 | -81.11741 | 18916 ft | 316 kts | 203° |
| 2026-05-08 19:27 | 31.50191 | -81.12412 | 18605 ft | 315 kts | 203° |
| 2026-05-08 19:27 | 31.48080 | -81.13080 | 18294 ft | 314 kts | 203° |
| 2026-05-08 19:27 | 31.45976 | -81.13741 | 17955 ft | 313 kts | 203° |
| 2026-05-08 19:28 | 31.43877 | -81.14399 | 17641 ft | 312 kts | 203° |
| 2026-05-08 19:28 | 31.41785 | -81.15058 | 17340 ft | 311 kts | 203° |
| 2026-05-08 19:28 | 31.39702 | -81.15717 | 17041 ft | 310 kts | 203° |
| 2026-05-08 19:28 | 31.37628 | -81.16373 | 16733 ft | 308 kts | 203° |
| 2026-05-08 19:29 | 31.35559 | -81.17028 | 16431 ft | 307 kts | 203° |
| 2026-05-08 19:29 | 31.33503 | -81.17680 | 16127 ft | 306 kts | 202° |
| 2026-05-08 19:29 | 31.31450 | -81.18331 | 15820 ft | 305 kts | 202° |
| 2026-05-08 19:29 | 31.29411 | -81.18974 | 15522 ft | 304 kts | 202° |
| 2026-05-08 19:30 | 31.27371 | -81.19611 | 15224 ft | 302 kts | 202° |
| 2026-05-08 19:30 | 31.25345 | -81.20243 | 14929 ft | 301 kts | 202° |
| 2026-05-08 19:30 | 31.23326 | -81.20875 | 14631 ft | 300 kts | 202° |
| 2026-05-08 19:30 | 31.21303 | -81.21460 | 14338 ft | 300 kts | 199° |
| 2026-05-08 19:31 | 31.19253 | -81.21931 | 14042 ft | 300 kts | 197° |
| 2026-05-08 19:31 | 31.17196 | -81.22345 | 13739 ft | 299 kts | 196° |
| 2026-05-08 19:31 | 31.15144 | -81.22743 | 13423 ft | 298 kts | 196° |
| 2026-05-08 19:31 | 31.13097 | -81.23139 | 13128 ft | 298 kts | 196° |
| 2026-05-08 19:32 | 31.11059 | -81.23539 | 12836 ft | 297 kts | 196° |
| 2026-05-08 19:32 | 31.09028 | -81.23948 | 12543 ft | 296 kts | 197° |
| 2026-05-08 19:32 | 31.07005 | -81.24362 | 12253 ft | 295 kts | 197° |
| 2026-05-08 19:32 | 31.04986 | -81.24776 | 11960 ft | 294 kts | 196° |
| 2026-05-08 19:33 | 31.02977 | -81.25190 | 11674 ft | 293 kts | 196° |
| 2026-05-08 19:33 | 31.00973 | -81.25610 | 11387 ft | 292 kts | 197° |
| 2026-05-08 19:33 | 30.98975 | -81.26031 | 11088 ft | 292 kts | 196° |
| 2026-05-08 19:33 | 30.96979 | -81.26444 | 10810 ft | 291 kts | 196° |
| 2026-05-08 19:34 | 30.95011 | -81.26847 | 10529 ft | 291 kts | 196° |
| 2026-05-08 19:34 | 30.93024 | -81.27256 | 10243 ft | 290 kts | 196° |
| 2026-05-08 19:34 | 30.91035 | -81.27667 | 9966 ft | 288 kts | 195° |
| 2026-05-08 19:34 | 30.89069 | -81.28073 | 9846 ft | 288 kts | 195° |
| 2026-05-08 19:35 | 30.87096 | -81.28481 | 9720 ft | 288 kts | 195° |
| 2026-05-08 19:35 | 30.85121 | -81.28890 | 9592 ft | 288 kts | 195° |
| 2026-05-08 19:35 | 30.83156 | -81.29320 | 9466 ft | 286 kts | 200° |
| 2026-05-08 19:35 | 30.81451 | -81.30358 | 9326 ft | 273 kts | 227° |
| 2026-05-08 19:36 | 30.80394 | -81.32135 | 9209 ft | 267 kts | 251° |
| 2026-05-08 19:36 | 30.79850 | -81.34189 | 9089 ft | 266 kts | 256° |
| 2026-05-08 19:36 | 30.79334 | -81.36258 | 8962 ft | 266 kts | 255° |
| 2026-05-08 19:36 | 30.78820 | -81.38322 | 8847 ft | 266 kts | 255° |
| 2026-05-08 19:37 | 30.78305 | -81.40385 | 8708 ft | 266 kts | 255° |
| 2026-05-08 19:37 | 30.77790 | -81.42447 | 8589 ft | 265 kts | 255° |
| 2026-05-08 19:37 | 30.77275 | -81.44506 | 8468 ft | 265 kts | 255° |
| 2026-05-08 19:37 | 30.76760 | -81.46566 | 8343 ft | 265 kts | 255° |
| 2026-05-08 19:38 | 30.76248 | -81.48620 | 8222 ft | 265 kts | 255° |
| 2026-05-08 19:38 | 30.75735 | -81.50674 | 8102 ft | 264 kts | 255° |
| 2026-05-08 19:38 | 30.75218 | -81.52724 | 7977 ft | 264 kts | 255° |
| 2026-05-08 19:38 | 30.74703 | -81.54773 | 7852 ft | 264 kts | 255° |
| 2026-05-08 19:39 | 30.74188 | -81.56821 | 7732 ft | 263 kts | 255° |
| 2026-05-08 19:39 | 30.73677 | -81.58865 | 7609 ft | 263 kts | 255° |
| 2026-05-08 19:39 | 30.73165 | -81.60910 | 7493 ft | 264 kts | 256° |
| 2026-05-08 19:39 | 30.72652 | -81.62956 | 7371 ft | 264 kts | 255° |
| 2026-05-08 19:40 | 30.72136 | -81.64997 | 7252 ft | 263 kts | 256° |
| 2026-05-08 19:40 | 30.71623 | -81.67033 | 7134 ft | 262 kts | 256° |
| 2026-05-08 19:40 | 30.71112 | -81.69062 | 7007 ft | 262 kts | 255° |
| 2026-05-08 19:40 | 30.70602 | -81.71081 | 6886 ft | 258 kts | 256° |
| 2026-05-08 19:41 | 30.70100 | -81.73064 | 6767 ft | 254 kts | 256° |
| 2026-05-08 19:41 | 30.69606 | -81.75018 | 6649 ft | 250 kts | 255° |
| 2026-05-08 19:41 | 30.69120 | -81.76937 | 6536 ft | 245 kts | 256° |
| 2026-05-08 19:41 | 30.68644 | -81.78818 | 6413 ft | 240 kts | 256° |
| 2026-05-08 19:42 | 30.68177 | -81.80662 | 6293 ft | 236 kts | 255° |
| 2026-05-08 19:42 | 30.67721 | -81.82461 | 6169 ft | 228 kts | 255° |
| 2026-05-08 19:42 | 30.67286 | -81.84177 | 6048 ft | 219 kts | 256° |
| 2026-05-08 19:42 | 30.66858 | -81.85863 | 5927 ft | 212 kts | 255° |
| 2026-05-08 19:43 | 30.66441 | -81.87504 | 5808 ft | 212 kts | 255° |
| 2026-05-08 19:43 | 30.66009 | -81.89114 | 5692 ft | 212 kts | 249° |
| 2026-05-08 19:43 | 30.65300 | -81.90649 | 5571 ft | 214 kts | 237° |
| 2026-05-08 19:43 | 30.64300 | -81.91935 | 5457 ft | 216 kts | 223° |
| 2026-05-08 19:44 | 30.63130 | -81.93051 | 5340 ft | 218 kts | 221° |
| 2026-05-08 19:44 | 30.61936 | -81.94122 | 5231 ft | 215 kts | 220° |
| 2026-05-08 19:44 | 30.60749 | -81.95123 | 5116 ft | 211 kts | 218° |
| 2026-05-08 19:44 | 30.59546 | -81.96074 | 4998 ft | 207 kts | 216° |
| 2026-05-08 19:45 | 30.58335 | -81.96962 | 4884 ft | 204 kts | 214° |
| 2026-05-08 19:45 | 30.57123 | -81.97796 | 4758 ft | 202 kts | 213° |
| 2026-05-08 19:45 | 30.55901 | -81.98587 | 4623 ft | 201 kts | 211° |
| 2026-05-08 19:45 | 30.54654 | -81.99334 | 4512 ft | 203 kts | 210° |
| 2026-05-08 19:46 | 30.53364 | -82.00041 | 4390 ft | 207 kts | 207° |
| 2026-05-08 19:46 | 30.52035 | -82.00716 | 4262 ft | 210 kts | 206° |
| 2026-05-08 19:46 | 30.49310 | -82.01938 | 4003 ft | 208 kts | 201° |
| 2026-05-08 19:47 | 30.47952 | -82.02460 | 3872 ft | 203 kts | 200° |
| 2026-05-08 19:47 | 30.46610 | -82.02922 | 3742 ft | 200 kts | 198° |
| 2026-05-08 19:47 | 30.45264 | -82.03334 | 3618 ft | 200 kts | 196° |
| 2026-05-08 19:47 | 30.43872 | -82.03388 | 3500 ft | 203 kts | 170° |
| 2026-05-08 19:48 | 30.42556 | -82.02794 | 3366 ft | 205 kts | 148° |
| 2026-05-08 19:48 | 30.41523 | -82.01665 | 3240 ft | 206 kts | 124° |
| 2026-05-08 19:48 | 30.40938 | -82.00164 | 3109 ft | 205 kts | 102° |
| 2026-05-08 19:48 | 30.40897 | -81.98534 | 2981 ft | 203 kts | 78° |
| 2026-05-08 19:49 | 30.41318 | -81.96986 | 2854 ft | 201 kts | 70° |
| 2026-05-08 19:49 | 30.41789 | -81.95471 | 2731 ft | 199 kts | 70° |
| 2026-05-08 19:49 | 30.42253 | -81.93970 | 2609 ft | 197 kts | 70° |
| 2026-05-08 19:49 | 30.42711 | -81.92485 | 2481 ft | 195 kts | 70° |
| 2026-05-08 19:50 | 30.43166 | -81.91011 | 2358 ft | 194 kts | 70° |
| 2026-05-08 19:50 | 30.43617 | -81.89545 | 2234 ft | 193 kts | 70° |
| 2026-05-08 19:50 | 30.44066 | -81.88088 | 2110 ft | 191 kts | 70° |
| 2026-05-08 19:50 | 30.44508 | -81.86655 | 1991 ft | 191 kts | 70° |
| 2026-05-08 19:51 | 30.44953 | -81.85207 | 1870 ft | 190 kts | 70° |
| 2026-05-08 19:51 | 30.45385 | -81.83804 | 1791 ft | 178 kts | 71° |
| 2026-05-08 19:51 | 30.45782 | -81.82512 | 1728 ft | 163 kts | 71° |
| 2026-05-08 19:51 | 30.46149 | -81.81319 | 1661 ft | 151 kts | 70° |
| 2026-05-08 19:52 | 30.46491 | -81.80206 | 1605 ft | 144 kts | 70° |
| 2026-05-08 19:52 | 30.46824 | -81.79120 | 1554 ft | 142 kts | 71° |
| 2026-05-08 19:52 | 30.47150 | -81.78058 | 1448 ft | 138 kts | 70° |
| 2026-05-08 19:52 | 30.47471 | -81.77014 | 1288 ft | 137 kts | 71° |
| 2026-05-08 19:53 | 30.47787 | -81.75982 | 1105 ft | 135 kts | 71° |
| 2026-05-08 19:53 | 30.48101 | -81.74959 | 942 ft | 135 kts | 71° |
| 2026-05-08 19:53 | 30.48414 | -81.73938 | 773 ft | 134 kts | 72° |
| 2026-05-08 19:53 | 30.48725 | -81.72923 | 599 ft | 132 kts | 70° |
| 2026-05-08 19:54 | 30.49029 | -81.71931 | 425 ft | 129 kts | 71° |
| 2026-05-08 19:54 | 30.49332 | -81.70944 | 262 ft | 131 kts | 70° |
| 2026-05-08 19:54 | 30.49634 | -81.69958 | 98 ft | 130 kts | 69° |
| 2026-05-08 19:54 | 30.49916 | -81.69040 | 41 ft | 103 kts | 71° |
| 2026-05-08 19:55 | 30.50043 | -81.68596 | 40 ft | 16 kts | 85° |
| 2026-05-08 19:55 | 30.50023 | -81.68512 | 38 ft | 4 kts | 116° |
| 2026-05-08 19:55 | 30.49997 | -81.68474 | 37 ft | 8 kts | 137° |
| 2026-05-08 19:55 | 30.49938 | -81.68443 | 39 ft | 9 kts | 163° |
| 2026-05-08 19:56 | 30.49867 | -81.68445 | 39 ft | 12 kts | 190° |
| 2026-05-08 19:56 | 30.49779 | -81.68463 | 39 ft | 14 kts | 191° |
| 2026-05-08 19:56 | 30.49675 | -81.68488 | 39 ft | 15 kts | 193° |
| 2026-05-08 19:56 | 30.49587 | -81.68511 | 39 ft | 5 kts | 191° |
| 2026-05-08 19:57 | 30.49548 | -81.68534 | 39 ft | 8 kts | 221° |
| 2026-05-08 19:57 | 30.49509 | -81.68588 | 39 ft | 10 kts | 233° |
| 2026-05-08 19:57 | 30.49462 | -81.68660 | 39 ft | 12 kts | 232° |
| 2026-05-08 19:57 | 30.49420 | -81.68707 | 39 ft | 9 kts | 204° |
| 2026-05-08 19:58 | 30.49356 | -81.68706 | 39 ft | 10 kts | 171° |
| 2026-05-08 19:58 | 30.49331 | -81.68651 | 39 ft | 8 kts | 98° |
| 2026-05-08 19:58 | 30.49326 | -81.68622 | 39 ft | 0 kts | 102° |